Time;durP1;ratioP1;P1;durP2;ratioP2;P2;SDS_P1;SDS_P2;PMS_P1;PMS_P2;Temp;Humidity;BMP_temperature;BMP_pressure;BME280_temperature;BME280_humidity;BME280_pressure;Samples;Min_cycle;Max_cycle;Signal;HPM_P1;HPM_P2
2022/10/11 00:02:10;;;;;;;;;;;;;;;;;;5054905;28;1651;-77
2022/10/11 00:04:36;;;;;;;;;;;;;;;;;;5071347;28;1130;-76
2022/10/11 00:07:02;;;;;;;;;;;;;;;;;;5065405;28;1197;-76
2022/10/11 00:09:29;;;;;;;;;;;;;;;;;;5062334;28;1398;-76
2022/10/11 00:11:56;;;;;;;;;;;;;;;;;;5072253;28;1164;-74
2022/10/11 00:14:23;;;;;;;;;;;;;;;;;;5073576;28;1072;-76
2022/10/11 00:16:49;;;;;;;;;;;;;;;;;;5073501;28;830;-76
2022/10/11 00:19:15;;;;;;;;;;;;;;;;;;5072793;28;1994;-76
2022/10/11 00:21:41;;;;;;;;;;;;;;;;;;5059938;28;1314;-77
2022/10/11 00:24:08;;;;;;;;;;;;;;;;;;5053285;28;1268;-76
2022/10/11 00:26:34;;;;;;;;;;;;;;;;;;5053560;28;945;-76
2022/10/11 00:29:01;;;;;;;;;;;;;;;;;;5051857;28;1309;-77
2022/10/11 00:31:28;;;;;;;;;;;;;;;;;;5053207;28;881;-77
2022/10/11 00:33:54;;;;;;;;;;;;;;;;;;5052763;28;1055;-76
2022/10/11 00:36:20;;;;;;;;;;;;;;;;;;5053271;28;1531;-76
2022/10/11 00:38:46;;;;;;;;;;;;;;;;;;5072859;28;1979;-77
2022/10/11 00:41:13;;;;;;;;;;;;;;;;;;5072886;28;1076;-76
2022/10/11 00:43:39;;;;;;;;;;;;;;;;;;5071406;28;1318;-76
2022/10/11 00:46:23;;;;;;;;;;;;;;;;;;5072701;28;969;-77
2022/10/11 00:48:50;;;;;;;;;;;;;;;;;;5070676;28;1448;-76
2022/10/11 00:51:17;;;;;;;;;;;;;;;;;;5072566;28;779;-75
2022/10/11 00:53:43;;;;;;;;;;;;;;;;;;5072598;28;1091;-76
2022/10/11 00:56:10;;;;;;;;;;;;;;;;;;5072715;28;940;-77
2022/10/11 00:58:36;;;;;;;;;;;;;;;;;;5056284;28;1363;-76
2022/10/11 01:01:02;;;;;;;;;;;;;;;;;;5052520;28;1918;-76
2022/10/11 01:03:30;;;;;;;;;;;;;;;;;;5052183;28;1063;-76
2022/10/11 01:05:56;;;;;;;;;;;;;;;;;;5051181;28;1132;-76
2022/10/11 01:08:22;;;;;;;;;;;;;;;;;;5052690;28;1059;-76
2022/10/11 01:10:49;;;;;;;;;;;;;;;;;;5051973;28;1332;-76
2022/10/11 01:13:17;;;;;;;;;;;;;;;;;;5052213;28;771;-76
2022/10/11 01:15:44;;;;;;;;;;;;;;;;;;5052435;28;957;-76
2022/10/11 01:18:12;;;;;;;;;;;;;;;;;;5051136;28;1456;-76
2022/10/11 01:20:43;;;;;;;;;;;;;;;;;;5052205;28;1914;-76
2022/10/11 01:23:14;;;;;;;;;;;;;;;;;;5051768;28;861;-76
2022/10/11 01:25:41;;;;;;;;;;;;;;;;;;5052275;28;1131;-75
2022/10/11 01:28:15;;;;;;;;;;;;;;;;;;5052025;28;687;-76
2022/10/11 01:30:42;;;;;;;;;;;;;;;;;;5050834;28;1459;-76
2022/10/11 01:33:14;;;;;;;;;;;;;;;;;;5051620;28;823;-76
2022/10/11 01:35:41;;;;;;;;;;;;;;;;;;5051873;28;1032;-76
2022/10/11 01:38:12;;;;;;;;;;;;;;;;;;5052105;28;1116;-77
2022/10/11 01:40:39;;;;;;;;;;;;;;;;;;5051658;28;1977;-76
2022/10/11 01:43:05;;;;;;;;;;;;;;;;;;5051552;28;961;-76
2022/10/11 01:45:32;;;;;;;;;;;;;;;;;;5050236;28;1369;-76
2022/10/11 01:48:04;;;;;;;;;;;;;;;;;;5051980;28;1440;-76
2022/10/11 01:50:33;;;;;;;;;;;;;;;;;;5050416;28;1435;-76
2022/10/11 01:52:59;;;;;;;;;;;;;;;;;;5051325;28;996;-77
2022/10/11 01:55:27;;;;;;;;;;;;;;;;;;5051845;28;1146;-77
2022/10/11 01:57:57;;;;;;;;;;;;;;;;;;5061804;28;1269;-76
2022/10/11 02:00:23;;;;;;;;;;;;;;;;;;5070235;28;1910;-76
2022/10/11 02:02:57;;;;;;;;;;;;;;;;;;5070062;28;1162;-76
2022/10/11 02:05:26;;;;;;;;;;;;;;;;;;5071419;28;1099;-76
2022/10/11 02:07:55;;;;;;;;;;;;;;;;;;5071291;28;702;-76
2022/10/11 02:10:23;;;;;;;;;;;;;;;;;;5070711;28;1382;-76
2022/10/11 02:12:51;;;;;;;;;;;;;;;;;;5072245;28;1011;-76
2022/10/11 02:15:17;;;;;;;;;;;;;;;;;;5071029;28;1115;-78
2022/10/11 02:17:45;;;;;;;;;;;;;;;;;;5061880;28;1464;-77
2022/10/11 02:20:13;;;;;;;;;;;;;;;;;;5050946;28;1910;-76
2022/10/11 02:22:41;;;;;;;;;;;;;;;;;;5049563;28;850;-76
2022/10/11 02:25:08;;;;;;;;;;;;;;;;;;5051021;28;1072;-76
2022/10/11 02:27:35;;;;;;;;;;;;;;;;;;5049931;28;1098;-76
2022/10/11 02:30:02;;;;;;;;;;;;;;;;;;5051055;28;1306;-77
2022/10/11 02:32:28;;;;;;;;;;;;;;;;;;5049785;28;1300;-76
2022/10/11 02:34:55;;;;;;;;;;;;;;;;;;5050900;28;1104;-76
2022/10/11 02:37:22;;;;;;;;;;;;;;;;;;5051182;28;875;-76
2022/10/11 02:39:51;;;;;;;;;;;;;;;;;;5050039;28;1914;-76
2022/10/11 02:42:18;;;;;;;;;;;;;;;;;;5050309;28;1075;-76
2022/10/11 02:44:45;;;;;;;;;;;;;;;;;;5067291;28;1483;-76
2022/10/11 02:47:11;;;;;;;;;;;;;;;;;;5070312;28;1495;-76
2022/10/11 02:49:37;;;;;;;;;;;;;;;;;;5070950;28;1298;-76
2022/10/11 02:52:04;;;;;;;;;;;;;;;;;;5070806;28;886;-76
2022/10/11 02:54:31;;;;;;;;;;;;;;;;;;5070256;28;1305;-75
2022/10/11 02:56:58;;;;;;;;;;;;;;;;;;5068512;28;1095;-76
2022/10/11 02:59:24;;;;;;;;;;;;;;;;;;5053894;28;1388;-76
2022/10/11 03:01:51;;;;;;;;;;;;;;;;;;5054551;28;1966;-76
2022/10/11 03:04:17;;;;;;;;;;;;;;;;;;5054768;28;869;-76
2022/10/11 03:06:43;;;;;;;;;;;;;;;;;;5054831;28;1071;-76
2022/10/11 03:09:09;;;;;;;;;;;;;;;;;;5054564;28;1334;-78
2022/10/11 03:11:35;;;;;;;;;;;;;;;;;;5054529;28;1028;-77
2022/10/11 03:14:03;;;;;;;;;;;;;;;;;;5054517;28;1123;-76
2022/10/11 03:16:29;;;;;;;;;;;;;;;;;;5074617;23;1991;-74
2022/10/11 03:18:55;;;;;;;;;;;;;;;;;;5052961;28;1354;-74
2022/10/11 03:21:23;;;;;;;;;;;;;;;;;;5053883;28;1917;-74
2022/10/11 03:23:50;;;;;;;;;;;;;;;;;;5054145;28;850;-73
2022/10/11 03:26:16;;;;;;;;;;;;;;;;;;5052975;28;1319;-74
2022/10/11 03:28:42;;;;;;;;;;;;;;;;;;5054058;28;1071;-73
2022/10/11 03:31:10;;;;;;;;;;;;;;;;;;5052859;28;1202;-73
2022/10/11 03:33:36;;;;;;;;;;;;;;;;;;5053699;28;1111;-73
2022/10/11 03:36:02;;;;;;;;;;;;;;;;;;5053664;28;1372;-73
2022/10/11 03:38:28;;;;;;;;;;;;;;;;;;5054062;28;1087;-73
2022/10/11 03:40:54;;;;;;;;;;;;;;;;;;5053591;28;1910;-73
2022/10/11 03:43:21;;;;;;;;;;;;;;;;;;5053610;28;1110;-74
2022/10/11 03:45:47;;;;;;;;;;;;;;;;;;5053409;28;1388;-73
2022/10/11 03:48:14;;;;;;;;;;;;;;;;;;5053285;28;1649;-73
2022/10/11 03:50:41;;;;;;;;;;;;;;;;;;5052305;28;1112;-73
2022/10/11 03:53:07;;;;;;;;;;;;;;;;;;5051784;28;1256;-74
2022/10/11 03:55:33;;;;;;;;;;;;;;;;;;5053577;28;1393;-73
2022/10/11 03:57:59;;;;;;;;;;;;;;;;;;5053302;28;1169;-72
2022/10/11 04:00:25;;;;;;;;;;;;;;;;;;5053457;28;1918;-73
2022/10/11 04:02:52;;;;;;;;;;;;;;;;;;5053253;28;1031;-73
2022/10/11 04:05:19;;;;;;;;;;;;;;;;;;5053299;28;1389;-73
2022/10/11 04:07:45;;;;;;;;;;;;;;;;;;5053389;28;984;-74
2022/10/11 04:10:11;;;;;;;;;;;;;;;;;;5052780;28;1130;-74
2022/10/11 04:12:38;;;;;;;;;;;;;;;;;;5053118;28;749;-74
2022/10/11 04:15:04;;;;;;;;;;;;;;;;;;5052966;28;1308;-74
2022/10/11 04:17:31;;;;;;;;;;;;;;;;;;5053065;28;1455;-73
2022/10/11 04:19:57;;;;;;;;;;;;;;;;;;5050959;28;1914;-74
2022/10/11 04:22:24;;;;;;;;;;;;;;;;;;5049728;28;1644;-73
2022/10/11 04:24:50;;;;;;;;;;;;;;;;;;5043582;28;1580;-73
2022/10/11 04:27:17;;;;;;;;;;;;;;;;;;5034658;28;1473;-73
2022/10/11 04:29:43;;;;;;;;;;;;;;;;;;5049859;28;1458;-73
2022/10/11 04:32:09;;;;;;;;;;;;;;;;;;5048337;28;1374;-73
2022/10/11 04:34:35;;;;;;;;;;;;;;;;;;5046849;28;1399;-73
2022/10/11 04:37:01;;;;;;;;;;;;;;;;;;5031701;28;1261;-74
2022/10/11 04:39:29;;;;;;;;;;;;;;;;;;5037132;28;1942;-75
2022/10/11 04:41:55;;;;;;;;;;;;;;;;;;5052164;28;1918;-75
2022/10/11 04:44:21;;;;;;;;;;;;;;;;;;5052927;28;1119;-74
2022/10/11 04:46:47;;;;;;;;;;;;;;;;;;5051623;28;1512;-72
2022/10/11 04:49:14;;;;;;;;;;;;;;;;;;5050948;28;1430;-73
2022/10/11 04:51:40;;;;;;;;;;;;;;;;;;5051035;28;1441;-72
2022/10/11 04:54:06;;;;;;;;;;;;;;;;;;5050360;28;1185;-72
2022/10/11 04:56:33;;;;;;;;;;;;;;;;;;5032431;28;1308;-72
2022/10/11 04:59:00;;;;;;;;;;;;;;;;;;5032221;28;1124;-72
2022/10/11 05:01:26;;;;;;;;;;;;;;;;;;5039781;28;1922;-72
2022/10/11 05:03:52;;;;;;;;;;;;;;;;;;5051594;28;1258;-72
2022/10/11 05:06:18;;;;;;;;;;;;;;;;;;5051432;28;1417;-72
2022/10/11 05:08:44;;;;;;;;;;;;;;;;;;5051767;28;1337;-73
2022/10/11 05:11:11;;;;;;;;;;;;;;;;;;5048917;28;1247;-75
2022/10/11 05:13:39;;;;;;;;;;;;;;;;;;5051186;28;1274;-72
2022/10/11 05:16:05;;;;;;;;;;;;;;;;;;5051123;28;1397;-73
2022/10/11 05:18:32;;;;;;;;;;;;;;;;;;5051394;28;1278;-72
2022/10/11 05:20:59;;;;;;;;;;;;;;;;;;5050352;28;1927;-71
2022/10/11 05:23:25;;;;;;;;;;;;;;;;;;5051112;28;1258;-73
2022/10/11 05:25:51;;;;;;;;;;;;;;;;;;5051195;28;1897;-72
2022/10/11 05:28:17;;;;;;;;;;;;;;;;;;5051254;28;1399;-72
2022/10/11 05:30:45;;;;;;;;;;;;;;;;;;5049986;28;1547;-73
2022/10/11 05:33:11;;;;;;;;;;;;;;;;;;5050947;28;1278;-73
2022/10/11 05:35:37;;;;;;;;;;;;;;;;;;5049916;28;1405;-73
2022/10/11 05:38:03;;;;;;;;;;;;;;;;;;5051320;28;1219;-73
2022/10/11 05:40:30;;;;;;;;;;;;;;;;;;5051013;28;1914;-72
2022/10/11 05:42:56;;;;;;;;;;;;;;;;;;5050400;28;1356;-72
2022/10/11 05:45:22;;;;;;;;;;;;;;;;;;5048076;28;1424;-72
2022/10/11 05:47:50;;;;;;;;;;;;;;;;;;5050835;28;1342;-73
2022/10/11 05:50:16;;;;;;;;;;;;;;;;;;5041274;28;1370;-72
2022/10/11 05:52:42;;;;;;;;;;;;;;;;;;5046787;28;1227;-73
2022/10/11 05:55:09;;;;;;;;;;;;;;;;;;5049057;28;1466;-72
2022/10/11 05:57:35;;;;;;;;;;;;;;;;;;5057462;28;1460;-72
2022/10/11 06:00:01;;;;;;;;;;;;;;;;;;5050048;28;1388;-71
2022/10/11 06:02:27;;;;;;;;;;;;;;;;;;5049048;28;1922;-72
2022/10/11 06:04:55;;;;;;;;;;;;;;;;;;5050368;28;1466;-73
2022/10/11 06:07:21;;;;;;;;;;;;;;;;;;5050735;28;1275;-72
2022/10/11 06:09:48;;;;;;;;;;;;;;;;;;5049750;28;1394;-71
2022/10/11 06:12:14;;;;;;;;;;;;;;;;;;5049465;28;1162;-72
2022/10/11 06:14:40;;;;;;;;;;;;;;;;;;5050303;28;1478;-72
2022/10/11 06:17:06;;;;;;;;;;;;;;;;;;5049868;28;1476;-72
2022/10/11 06:19:32;;;;;;;;;;;;;;;;;;5048752;28;1558;-71
2022/10/11 06:22:00;;;;;;;;;;;;;;;;;;5047079;28;1914;-72
2022/10/11 06:24:26;;;;;;;;;;;;;;;;;;5049532;28;1349;-72
2022/10/11 06:26:53;;;;;;;;;;;;;;;;;;5049792;28;1347;-73
2022/10/11 06:29:19;;;;;;;;;;;;;;;;;;5047169;28;1203;-72
2022/10/11 06:31:45;;;;;;;;;;;;;;;;;;5049066;28;1314;-72
2022/10/11 06:34:11;;;;;;;;;;;;;;;;;;5040260;28;1406;-72
2022/10/11 06:36:38;;;;;;;;;;;;;;;;;;5049864;28;1485;-72
2022/10/11 06:39:06;;;;;;;;;;;;;;;;;;5046960;28;1220;-71
2022/10/11 06:41:32;;;;;;;;;;;;;;;;;;5048659;28;1910;-72
2022/10/11 06:43:58;;;;;;;;;;;;;;;;;;5050003;28;1378;-72
2022/10/11 06:46:25;;;;;;;;;;;;;;;;;;5048639;28;1430;-72
2022/10/11 06:48:51;;;;;;;;;;;;;;;;;;5050356;28;972;-72
2022/10/11 06:51:18;;;;;;;;;;;;;;;;;;5048647;28;1451;-72
2022/10/11 06:53:48;;;;;;;;;;;;;;;;;;5050463;28;1079;-71
2022/10/11 06:56:15;;;;;;;;;;;;;;;;;;5049035;28;1460;-72
2022/10/11 06:58:41;;;;;;;;;;;;;;;;;;5050061;28;1198;-72
2022/10/11 07:01:09;;;;;;;;;;;;;;;;;;5049238;28;1922;-73
2022/10/11 07:03:35;;;;;;;;;;;;;;;;;;5049581;28;1175;-73
2022/10/11 07:06:02;;;;;;;;;;;;;;;;;;5049720;28;1379;-73
2022/10/11 07:08:28;;;;;;;;;;;;;;;;;;5045142;28;1822;-72
2022/10/11 07:10:59;;;;;;;;;;;;;;;;;;5043319;28;1540;-70
2022/10/11 07:13:26;;;;;;;;;;;;;;;;;;5044780;28;1735;-73
2022/10/11 07:15:52;;;;;;;;;;;;;;;;;;5047322;28;1475;-72
2022/10/11 07:18:18;;;;;;;;;;;;;;;;;;5049616;28;1247;-73
2022/10/11 07:20:45;;;;;;;;;;;;;;;;;;5049881;28;1313;-73
2022/10/11 07:23:11;;;;;;;;;;;;;;;;;;5049364;28;1943;-73
2022/10/11 07:25:37;;;;;;;;;;;;;;;;;;5049537;28;1408;-72
2022/10/11 07:28:04;;;;;;;;;;;;;;;;;;5047832;28;1340;-72
2022/10/11 07:30:31;;;;;;;;;;;;;;;;;;5049237;28;1303;-73
2022/10/11 07:32:57;;;;;;;;;;;;;;;;;;5049112;28;1258;-72
2022/10/11 07:35:23;;;;;;;;;;;;;;;;;;5049698;28;1467;-73
2022/10/11 07:37:50;;;;;;;;;;;;;;;;;;5049690;28;1259;-73
2022/10/11 07:40:16;;;;;;;;;;;;;;;;;;5048283;28;1227;-73
2022/10/11 07:42:42;;;;;;;;;;;;;;;;;;5036893;28;1923;-73
2022/10/11 07:45:08;;;;;;;;;;;;;;;;;;5041304;28;1404;-74
2022/10/11 07:47:36;;;;;;;;;;;;;;;;;;5052920;28;1433;-72
2022/10/11 07:50:02;;;;;;;;;;;;;;;;;;5052070;28;1219;-73
2022/10/11 07:52:28;;;;;;;;;;;;;;;;;;5052956;28;1254;-73
2022/10/11 07:54:55;;;;;;;;;;;;;;;;;;5050734;28;1406;-74
2022/10/11 07:57:21;;;;;;;;;;;;;;;;;;5051402;28;1247;-73
2022/10/11 07:59:47;;;;;;;;;;;;;;;;;;5051704;28;1456;-73
2022/10/11 08:02:13;;;;;;;;;;;;;;;;;;5041081;28;1973;-73
2022/10/11 08:04:41;;;;;;;;;;;;;;;;;;5051884;28;1410;-74
2022/10/11 08:07:07;;;;;;;;;;;;;;;;;;5052879;28;1319;-73
2022/10/11 08:09:33;;;;;;;;;;;;;;;;;;5051600;28;1248;-72
2022/10/11 08:11:59;;;;;;;;;;;;;;;;;;5051332;28;1301;-72
2022/10/11 08:14:25;;;;;;;;;;;;;;;;;;5047793;28;1303;-73
2022/10/11 08:16:52;;;;;;;;;;;;;;;;;;5051520;28;1338;-72
2022/10/11 08:19:18;;;;;;;;;;;;;;;;;;5052173;28;1356;-72
2022/10/11 08:21:45;;;;;;;;;;;;;;;;;;5039651;28;1906;-72
2022/10/11 08:24:12;;;;;;;;;;;;;;;;;;5053344;28;1329;-73
2022/10/11 08:26:39;;;;;;;;;;;;;;;;;;5052975;28;1419;-73
2022/10/11 08:29:05;;;;;;;;;;;;;;;;;;5049805;28;1228;-74
2022/10/11 08:31:32;;;;;;;;;;;;;;;;;;5052963;28;1258;-74
2022/10/11 08:33:58;;;;;;;;;;;;;;;;;;5053642;28;1326;-72
2022/10/11 08:36:24;;;;;;;;;;;;;;;;;;5053780;28;1438;-71
2022/10/11 08:38:52;;;;;;;;;;;;;;;;;;5052405;28;1333;-73
2022/10/11 08:41:23;;;;;;;;;;;;;;;;;;5043580;28;1263;-72
2022/10/11 08:43:52;;;;;;;;;;;;;;;;;;5051066;28;1263;-73
2022/10/11 08:46:19;;;;;;;;;;;;;;;;;;5052358;28;1372;-73
2022/10/11 08:48:46;;;;;;;;;;;;;;;;;;5050507;28;1359;-73
2022/10/11 08:51:13;;;;;;;;;;;;;;;;;;5053604;28;1238;-71
2022/10/11 08:53:41;;;;;;;;;;;;;;;;;;5058930;28;1168;-73
2022/10/11 08:56:08;;;;;;;;;;;;;;;;;;5046691;28;1393;-74
2022/10/11 08:58:36;;;;;;;;;;;;;;;;;;5048519;28;1262;-73
2022/10/11 09:01:02;;;;;;;;;;;;;;;;;;5051239;28;1278;-73
2022/10/11 09:03:29;;;;;;;;;;;;;;;;;;5051170;28;1922;-73
2022/10/11 09:05:59;;;;;;;;;;;;;;;;;;5051246;28;1377;-73
2022/10/11 09:08:26;;;;;;;;;;;;;;;;;;5051863;28;1392;-73
2022/10/11 09:10:57;;;;;;;;;;;;;;;;;;5053097;28;1263;-76
2022/10/11 09:13:33;;;;;;;;;;;;;;;;;;5051206;28;1302;-73
2022/10/11 09:16:01;;;;;;;;;;;;;;;;;;5051976;28;1443;-73
2022/10/11 09:18:31;;;;;;;;;;;;;;;;;;5048466;28;1284;-73
2022/10/11 09:21:00;;;;;;;;;;;;;;;;;;5052868;28;1306;-74
2022/10/11 09:23:34;;;;;;;;;;;;;;;;;;5049740;28;1914;-74
2022/10/11 09:26:02;;;;;;;;;;;;;;;;;;5050299;28;1382;-73
2022/10/11 09:28:31;;;;;;;;;;;;;;;;;;5052376;28;1325;-73
2022/10/11 09:33:31;;;;;;;;;;;;;;;;;;5027323;28;1398;-77
2022/10/11 09:35:58;;;;;;;;;;;;;;;;;;5035428;28;1157;-77
2022/10/11 09:38:30;;;;;;;;;;;;;;;;;;5037994;28;933;-78
2022/10/11 09:41:01;;;;;;;;;;;;;;;;;;5033600;28;1685;-76
2022/10/11 09:43:28;;;;;;;;;;;;;;;;;;5031918;28;1966;-76
2022/10/11 09:45:55;;;;;;;;;;;;;;;;;;5032365;28;1093;-76
2022/10/11 09:48:22;;;;;;;;;;;;;;;;;;5021403;28;1323;-78
2022/10/11 09:50:48;;;;;;;;;;;;;;;;;;5023503;28;1324;-78
2022/10/11 09:53:15;;;;;;;;;;;;;;;;;;5021326;28;1277;-78
2022/10/11 09:55:43;;;;;;;;;;;;;;;;;;5021224;28;1452;-77
2022/10/11 09:58:23;;;;;;;;;;;;;;;;;;5023462;28;1319;-78
2022/10/11 10:00:57;;;;;;;;;;;;;;;;;;5024989;28;1241;-77
2022/10/11 10:03:27;;;;;;;;;;;;;;;;;;5017784;28;1977;-78
2022/10/11 10:05:53;;;;;;;;;;;;;;;;;;5013090;28;1111;-78
2022/10/11 10:08:23;;;;;;;;;;;;;;;;;;5012716;28;1115;-78
2022/10/11 10:10:57;;;;;;;;;;;;;;;;;;5013537;28;1251;-78
2022/10/11 10:13:24;;;;;;;;;;;;;;;;;;5022788;28;1339;-77
2022/10/11 10:15:52;;;;;;;;;;;;;;;;;;5021409;28;1244;-77
2022/10/11 10:18:20;;;;;;;;;;;;;;;;;;5020791;28;1328;-77
2022/10/11 10:20:50;;;;;;;;;;;;;;;;;;5022106;28;1370;-76
2022/10/11 10:23:19;;;;;;;;;;;;;;;;;;5019111;28;1991;-77
2022/10/11 10:25:49;;;;;;;;;;;;;;;;;;5019821;28;1280;-76
2022/10/11 10:28:17;;;;;;;;;;;;;;;;;;5019500;28;1219;-76
2022/10/11 10:30:49;;;;;;;;;;;;;;;;;;5020444;28;1185;-77
2022/10/11 10:33:18;;;;;;;;;;;;;;;;;;5027942;28;1751;-77
2022/10/11 10:35:46;;;;;;;;;;;;;;;;;;5030307;28;845;-76
2022/10/11 10:38:14;;;;;;;;;;;;;;;;;;5031131;28;869;-76
2022/10/11 10:40:41;;;;;;;;;;;;;;;;;;5031288;28;1122;-76
2022/10/11 10:43:10;;;;;;;;;;;;;;;;;;5029672;28;1914;-76
2022/10/11 10:45:38;;;;;;;;;;;;;;;;;;5011868;28;927;-77
2022/10/11 10:48:09;;;;;;;;;;;;;;;;;;5011429;28;1083;-76
2022/10/11 10:50:40;;;;;;;;;;;;;;;;;;5011265;28;857;-76
2022/10/11 10:53:11;;;;;;;;;;;;;;;;;;5011680;28;1469;-77
2022/10/11 10:55:38;;;;;;;;;;;;;;;;;;5011646;28;1064;-77
2022/10/11 10:58:06;;;;;;;;;;;;;;;;;;5025417;28;1278;-76
2022/10/11 11:00:34;;;;;;;;;;;;;;;;;;5032628;28;1546;-76
2022/10/11 11:03:00;;;;;;;;;;;;;;;;;;5031022;28;1910;-77
2022/10/11 11:05:29;;;;;;;;;;;;;;;;;;5031477;28;822;-77
2022/10/11 11:07:57;;;;;;;;;;;;;;;;;;5046704;28;1123;-76
2022/10/11 11:10:27;;;;;;;;;;;;;;;;;;5029798;28;1128;-76
2022/10/11 11:12:55;;;;;;;;;;;;;;;;;;5030634;28;1412;-76
2022/10/11 11:15:23;;;;;;;;;;;;;;;;;;5021158;28;1125;-76
2022/10/11 11:17:55;;;;;;;;;;;;;;;;;;5017636;28;1216;-76
2022/10/11 11:20:24;;;;;;;;;;;;;;;;;;5032275;28;1255;-76
2022/10/11 11:22:52;;;;;;;;;;;;;;;;;;5033521;28;1986;-76
2022/10/11 11:25:27;;;;;;;;;;;;;;;;;;5034662;28;1108;-76
2022/10/11 11:27:56;;;;;;;;;;;;;;;;;;5034562;28;937;-76
2022/10/11 11:30:22;;;;;;;;;;;;;;;;;;5028800;28;1161;-77
2022/10/11 11:32:51;;;;;;;;;;;;;;;;;;5016962;28;1310;-77
2022/10/11 11:35:20;;;;;;;;;;;;;;;;;;5013986;28;1064;-76
2022/10/11 11:37:46;;;;;;;;;;;;;;;;;;5013191;28;1072;-76
2022/10/11 11:40:14;;;;;;;;;;;;;;;;;;5012337;28;1244;-77
2022/10/11 11:42:42;;;;;;;;;;;;;;;;;;5013412;28;1982;-77
2022/10/11 11:45:12;;;;;;;;;;;;;;;;;;5011523;28;1080;-77
2022/10/11 11:47:40;;;;;;;;;;;;;;;;;;5013391;28;1404;-76
2022/10/11 11:50:14;;;;;;;;;;;;;;;;;;5013129;28;1435;-76
2022/10/11 11:52:42;;;;;;;;;;;;;;;;;;5030695;28;1512;-76
2022/10/11 11:55:10;;;;;;;;;;;;;;;;;;5049287;28;1191;-76
2022/10/11 11:57:41;;;;;;;;;;;;;;;;;;5041453;28;1171;-76
2022/10/11 12:00:13;;;;;;;;;;;;;;;;;;5014259;28;1127;-76
2022/10/11 12:02:42;;;;;;;;;;;;;;;;;;5013786;28;1910;-76
2022/10/11 12:05:08;;;;;;;;;;;;;;;;;;5014141;28;1127;-76
2022/10/11 12:07:46;;;;;;;;;;;;;;;;;;5014205;28;1024;-76
2022/10/11 12:10:17;;;;;;;;;;;;;;;;;;5014144;28;898;-76
2022/10/11 12:12:43;;;;;;;;;;;;;;;;;;5013919;28;1354;-76
2022/10/11 12:15:18;;;;;;;;;;;;;;;;;;5013896;28;1068;-76
2022/10/11 12:18:00;;;;;;;;;;;;;;;;;;5013832;28;938;-76
2022/10/11 12:20:27;;;;;;;;;;;;;;;;;;5013797;28;1453;-76
2022/10/11 12:22:56;;;;;;;;;;;;;;;;;;5015256;28;1927;-76
2022/10/11 12:25:34;;;;;;;;;;;;;;;;;;5014385;28;1350;-76
2022/10/11 12:28:00;;;;;;;;;;;;;;;;;;5013242;28;751;-76
2022/10/11 12:30:46;;;;;;;;;;;;;;;;;;5012051;28;1081;-76
2022/10/11 12:33:14;;;;;;;;;;;;;;;;;;5011861;28;1303;-77
2022/10/11 12:35:56;;;;;;;;;;;;;;;;;;5012425;28;1005;-76
2022/10/11 12:38:22;;;;;;;;;;;;;;;;;;5011494;28;1057;-76
2022/10/11 12:40:49;;;;;;;;;;;;;;;;;;5012072;28;779;-76
2022/10/11 12:43:29;;;;;;;;;;;;;;;;;;5010178;28;1985;-76
2022/10/11 12:45:55;;;;;;;;;;;;;;;;;;5011679;28;877;-76
2022/10/11 12:48:37;;;;;;;;;;;;;;;;;;5011436;28;1417;-76
2022/10/11 12:51:05;;;;;;;;;;;;;;;;;;5031942;28;1325;-76
2022/10/11 12:53:50;;;;;;;;;;;;;;;;;;5047158;28;862;-76
2022/10/11 12:56:17;;;;;;;;;;;;;;;;;;5029448;28;909;-76
2022/10/11 12:58:46;;;;;;;;;;;;;;;;;;5013438;28;1242;-76
2022/10/11 13:01:17;;;;;;;;;;;;;;;;;;5010359;28;1367;-76
2022/10/11 13:03:46;;;;;;;;;;;;;;;;;;5011541;28;1918;-77
2022/10/11 13:06:14;;;;;;;;;;;;;;;;;;5010360;28;1531;-77
2022/10/11 13:08:41;;;;;;;;;;;;;;;;;;5029519;28;1524;-77
2022/10/11 13:11:09;;;;;;;;;;;;;;;;;;5030780;28;1383;-77
2022/10/11 13:13:37;;;;;;;;;;;;;;;;;;5028299;28;950;-76
2022/10/11 13:16:04;;;;;;;;;;;;;;;;;;5030339;28;942;-76
2022/10/11 13:18:30;;;;;;;;;;;;;;;;;;5019005;28;1505;-76
2022/10/11 13:20:58;;;;;;;;;;;;;;;;;;5009976;28;1392;-76
2022/10/11 13:23:25;;;;;;;;;;;;;;;;;;5010685;28;1985;-76
2022/10/11 13:25:51;;;;;;;;;;;;;;;;;;5011432;28;1217;-77
2022/10/11 13:28:17;;;;;;;;;;;;;;;;;;5013597;28;902;-77
2022/10/11 13:30:45;;;;;;;;;;;;;;;;;;5012984;28;941;-77
2022/10/11 13:33:13;;;;;;;;;;;;;;;;;;5011918;28;1454;-76
2022/10/11 13:35:39;;;;;;;;;;;;;;;;;;5011068;28;1080;-76
2022/10/11 13:38:08;;;;;;;;;;;;;;;;;;5013121;28;1076;-76
2022/10/11 13:40:34;;;;;;;;;;;;;;;;;;5009771;28;883;-76
2022/10/11 13:43:00;;;;;;;;;;;;;;;;;;5011375;28;1910;-76
2022/10/11 13:45:29;;;;;;;;;;;;;;;;;;5013256;28;1084;-76
2022/10/11 13:47:55;;;;;;;;;;;;;;;;;;5014772;28;1488;-77
2022/10/11 13:50:23;;;;;;;;;;;;;;;;;;5012210;28;1084;-77
2022/10/11 13:52:50;;;;;;;;;;;;;;;;;;5010896;28;1406;-77
2022/10/11 13:55:23;;;;;;;;;;;;;;;;;;5011438;28;1198;-77
2022/10/11 13:57:50;;;;;;;;;;;;;;;;;;5018880;28;1384;-77
2022/10/11 14:00:24;;;;;;;;;;;;;;;;;;5029506;28;1531;-77
2022/10/11 14:02:51;;;;;;;;;;;;;;;;;;5031221;28;1364;-77
2022/10/11 14:05:21;;;;;;;;;;;;;;;;;;5031004;28;2008;-77
2022/10/11 14:07:47;;;;;;;;;;;;;;;;;;5028984;28;1315;-76
2022/10/11 14:10:18;;;;;;;;;;;;;;;;;;5031623;28;762;-77
2022/10/11 14:12:45;;;;;;;;;;;;;;;;;;5030078;28;1340;-76
2022/10/11 14:15:22;;;;;;;;;;;;;;;;;;5029058;28;1366;-77
2022/10/11 14:17:50;;;;;;;;;;;;;;;;;;5030581;28;1485;-77
2022/10/11 14:20:17;;;;;;;;;;;;;;;;;;5028870;28;1068;-77
2022/10/11 14:22:43;;;;;;;;;;;;;;;;;;5027224;28;1326;-77
2022/10/11 14:25:09;;;;;;;;;;;;;;;;;;5029071;28;1990;-77
2022/10/11 14:27:36;;;;;;;;;;;;;;;;;;5029939;28;1076;-77
2022/10/11 14:30:03;;;;;;;;;;;;;;;;;;5030401;28;1123;-77
2022/10/11 14:32:30;;;;;;;;;;;;;;;;;;5030314;28;1392;-77
2022/10/11 14:34:56;;;;;;;;;;;;;;;;;;5030939;28;930;-77
2022/10/11 14:37:23;;;;;;;;;;;;;;;;;;5031059;28;1126;-77
2022/10/11 14:39:49;;;;;;;;;;;;;;;;;;5047195;28;1008;-77
2022/10/11 14:42:15;;;;;;;;;;;;;;;;;;5030040;28;1300;-77
2022/10/11 14:44:42;;;;;;;;;;;;;;;;;;5030501;28;1967;-77
2022/10/11 14:47:09;;;;;;;;;;;;;;;;;;5048403;28;1465;-78
2022/10/11 14:49:36;;;;;;;;;;;;;;;;;;5033217;28;954;-77
2022/10/11 14:52:03;;;;;;;;;;;;;;;;;;5029339;28;1376;-77
2022/10/11 14:54:30;;;;;;;;;;;;;;;;;;5035695;28;828;-77
2022/10/11 14:56:57;;;;;;;;;;;;;;;;;;5033098;28;1358;-77
2022/10/11 14:59:24;;;;;;;;;;;;;;;;;;5015963;28;1152;-77
2022/10/11 15:01:52;;;;;;;;;;;;;;;;;;5016688;28;1362;-77
2022/10/11 15:04:20;;;;;;;;;;;;;;;;;;5014720;28;1898;-77
2022/10/11 15:06:46;;;;;;;;;;;;;;;;;;5016703;28;933;-77
2022/10/11 15:09:12;;;;;;;;;;;;;;;;;;5017401;28;902;-77
2022/10/11 15:11:38;;;;;;;;;;;;;;;;;;5016681;28;1241;-77
2022/10/11 15:14:05;;;;;;;;;;;;;;;;;;5017059;28;1509;-76
2022/10/11 15:16:31;;;;;;;;;;;;;;;;;;5032430;28;1460;-77
2022/10/11 15:18:57;;;;;;;;;;;;;;;;;;5026632;28;1321;-76
2022/10/11 15:21:27;;;;;;;;;;;;;;;;;;5023596;28;1392;-76
2022/10/11 15:23:53;;;;;;;;;;;;;;;;;;5021511;28;1918;-76
2022/10/11 15:26:20;;;;;;;;;;;;;;;;;;5031214;28;1315;-77
2022/10/11 15:28:47;;;;;;;;;;;;;;;;;;5026501;28;1431;-76
2022/10/11 15:31:13;;;;;;;;;;;;;;;;;;5027591;28;1650;-76
2022/10/11 15:33:39;;;;;;;;;;;;;;;;;;5022612;28;1471;-76
2022/10/11 15:36:06;;;;;;;;;;;;;;;;;;5022783;28;1845;-77
2022/10/11 15:38:34;;;;;;;;;;;;;;;;;;5025154;28;1319;-76
2022/10/11 15:41:00;;;;;;;;;;;;;;;;;;5040560;28;1369;-77
2022/10/11 15:43:38;;;;;;;;;;;;;;;;;;5027051;28;1628;-77
2022/10/11 15:46:05;;;;;;;;;;;;;;;;;;5034736;28;929;-77
2022/10/11 15:48:31;;;;;;;;;;;;;;;;;;5035913;28;1056;-76
2022/10/11 15:50:58;;;;;;;;;;;;;;;;;;5036076;28;1324;-77
2022/10/11 15:53:27;;;;;;;;;;;;;;;;;;5035174;28;1071;-76
2022/10/11 15:55:55;;;;;;;;;;;;;;;;;;5032811;28;1283;-78
2022/10/11 15:58:22;;;;;;;;;;;;;;;;;;5026426;28;1206;-77
2022/10/11 16:00:49;;;;;;;;;;;;;;;;;;5018710;28;1063;-77
2022/10/11 16:03:15;;;;;;;;;;;;;;;;;;5032740;28;1491;-77
2022/10/11 16:05:42;;;;;;;;;;;;;;;;;;5029799;28;1914;-76
2022/10/11 16:08:08;;;;;;;;;;;;;;;;;;5029983;28;1135;-76
2022/10/11 16:10:35;;;;;;;;;;;;;;;;;;5033845;28;1091;-77
2022/10/11 16:13:02;;;;;;;;;;;;;;;;;;5035790;28;1353;-77
2022/10/11 16:15:29;;;;;;;;;;;;;;;;;;5013452;28;1159;-75
2022/10/11 16:17:55;;;;;;;;;;;;;;;;;;5014990;28;902;-76
2022/10/11 16:20:23;;;;;;;;;;;;;;;;;;5014795;28;852;-76
2022/10/11 16:22:49;;;;;;;;;;;;;;;;;;5011858;28;1403;-77
2022/10/11 16:25:16;;;;;;;;;;;;;;;;;;5016016;28;1910;-76
2022/10/11 16:27:42;;;;;;;;;;;;;;;;;;5031324;28;1222;-76
2022/10/11 16:30:11;;;;;;;;;;;;;;;;;;5019677;28;1171;-76
2022/10/11 16:32:38;;;;;;;;;;;;;;;;;;5031156;28;1534;-76
2022/10/11 16:35:04;;;;;;;;;;;;;;;;;;5033435;28;857;-76
2022/10/11 16:37:31;;;;;;;;;;;;;;;;;;5034261;28;1039;-77
2022/10/11 16:39:57;;;;;;;;;;;;;;;;;;5033307;28;1242;-76
2022/10/11 16:42:23;;;;;;;;;;;;;;;;;;5025542;28;1390;-76
2022/10/11 16:44:50;;;;;;;;;;;;;;;;;;5033850;28;1911;-76
2022/10/11 16:47:18;;;;;;;;;;;;;;;;;;5031487;28;1135;-76
2022/10/11 16:49:44;;;;;;;;;;;;;;;;;;5032778;28;902;-76
2022/10/11 16:52:12;;;;;;;;;;;;;;;;;;5031700;28;1788;-76
2022/10/11 16:54:38;;;;;;;;;;;;;;;;;;5018787;28;1072;-76
2022/10/11 16:57:05;;;;;;;;;;;;;;;;;;5016894;28;1209;-76
2022/10/11 16:59:32;;;;;;;;;;;;;;;;;;5033190;28;920;-77
2022/10/11 17:01:58;;;;;;;;;;;;;;;;;;5031697;28;1552;-77
2022/10/11 17:04:26;;;;;;;;;;;;;;;;;;5015975;28;1907;-77
2022/10/11 17:06:53;;;;;;;;;;;;;;;;;;5027982;28;1584;-76
2022/10/11 17:09:20;;;;;;;;;;;;;;;;;;5022810;28;1344;-76
2022/10/11 17:11:46;;;;;;;;;;;;;;;;;;5020871;28;1486;-77